Time;durP1;ratioP1;P1;durP2;ratioP2;P2;SDS_P1;SDS_P2;PMS_P1;PMS_P2;Temp;Humidity;BMP_temperature;BMP_pressure;BME280_temperature;BME280_humidity;BME280_pressure;Samples;Min_cycle;Max_cycle;Signal;HPM_P1;HPM_P2
2021/03/18 00:01:29;;;;;;;26.08;13.00;;;0.40;99.90;;;;;;5013194;28;20030;-75
2021/03/18 00:03:56;;;;;;;20.35;10.57;;;0.40;99.90;;;;;;5011831;28;20121;-75
2021/03/18 00:06:22;;;;;;;17.38;10.45;;;0.40;99.90;;;;;;5011875;28;20022;-76
2021/03/18 00:08:48;;;;;;;13.77;8.68;;;0.40;99.90;;;;;;5013028;28;20026;-76
2021/03/18 00:11:17;;;;;;;17.27;11.85;;;0.40;99.90;;;;;;5011764;28;20032;-76
2021/03/18 00:13:44;;;;;;;16.92;10.07;;;0.40;99.90;;;;;;5013139;28;20101;-76
2021/03/18 00:16:10;;;;;;;18.98;10.90;;;0.40;99.90;;;;;;5011258;28;20072;-75
2021/03/18 00:18:51;;;;;;;16.23;9.43;;;0.40;99.90;;;;;;5013060;28;20033;-75
2021/03/18 00:21:17;;;;;;;23.50;10.90;;;0.40;99.90;;;;;;5013024;28;20022;-75
2021/03/18 00:23:43;;;;;;;16.42;9.05;;;0.30;99.90;;;;;;5011289;28;20025;-75
2021/03/18 00:26:09;;;;;;;17.88;10.35;;;0.30;99.90;;;;;;5012913;28;20022;-75
2021/03/18 00:28:35;;;;;;;18.15;8.57;;;0.30;99.90;;;;;;5012849;28;20100;-74
2021/03/18 00:31:05;;;;;;;20.98;10.30;;;0.30;99.90;;;;;;5012843;28;20022;-76
2021/03/18 00:33:31;;;;;;;19.88;10.60;;;0.30;99.90;;;;;;5012853;28;20029;-75
2021/03/18 00:35:57;;;;;;;16.17;9.20;;;0.30;99.90;;;;;;5012822;28;20022;-75
2021/03/18 00:38:25;;;;;;;23.20;10.55;;;0.30;99.90;;;;;;5012771;28;20026;-75
2021/03/18 00:40:55;;;;;;;24.80;11.68;;;0.30;99.90;;;;;;5011542;28;20041;-74
2021/03/18 00:43:22;;;;;;;24.52;10.88;;;0.20;99.90;;;;;;5012835;28;20053;-74
2021/03/18 00:45:48;;;;;;;19.45;10.30;;;0.30;99.90;;;;;;5011186;28;20022;-75
2021/03/18 00:48:16;;;;;;;18.98;10.65;;;0.30;99.90;;;;;;5014237;28;20110;-75
2021/03/18 00:50:50;;;;;;;22.75;11.43;;;0.30;99.90;;;;;;5015867;28;20057;-74
2021/03/18 00:53:19;;;;;;;30.60;14.32;;;0.30;99.90;;;;;;5014963;28;20539;-74
2021/03/18 00:55:45;;;;;;;23.20;11.43;;;0.30;99.90;;;;;;5016416;28;20425;-76
2021/03/18 00:58:11;;;;;;;21.35;11.20;;;0.20;99.90;;;;;;5016279;28;20077;-76
2021/03/18 01:00:46;;;;;;;26.38;12.73;;;0.20;99.90;;;;;;5016302;28;20053;-74
2021/03/18 01:03:12;;;;;;;25.75;14.18;;;0.20;99.90;;;;;;5014877;28;20076;-74
2021/03/18 01:05:49;;;;;;;26.90;13.57;;;0.20;99.90;;;;;;5016171;28;20022;-74
2021/03/18 01:08:18;;;;;;;22.55;13.43;;;0.20;99.90;;;;;;5015513;28;20101;-73
2021/03/18 01:10:51;;;;;;;30.83;13.65;;;0.20;99.90;;;;;;5016086;28;20041;-74
2021/03/18 01:13:19;;;;;;;29.60;14.98;;;0.20;99.90;;;;;;5015697;28;20014;-74
2021/03/18 01:16:03;;;;;;;33.97;15.80;;;0.20;99.90;;;;;;5015688;28;20040;-74
2021/03/18 01:18:54;;;;;;;33.17;15.52;;;0.20;99.90;;;;;;5013059;28;20041;-74
2021/03/18 01:21:23;;;;;;;30.45;14.73;;;0.20;99.90;;;;;;5007911;28;20095;-74
2021/03/18 01:23:49;;;;;;;36.25;16.83;;;0.10;99.90;;;;;;5015866;28;20025;-75
2021/03/18 01:26:16;;;;;;;31.88;15.73;;;0.10;99.90;;;;;;5014465;28;20527;-76
2021/03/18 01:28:42;;;;;;;27.08;14.35;;;0.10;99.90;;;;;;5015646;28;20030;-76
2021/03/18 01:31:09;;;;;;;28.92;14.93;;;0.10;99.90;;;;;;5014417;28;20113;-76
2021/03/18 01:33:36;;;;;;;27.75;14.80;;;0.10;99.90;;;;;;5015665;28;20480;-75
2021/03/18 01:36:03;;;;;;;25.88;14.80;;;0.10;99.90;;;;;;5015608;28;20029;-75
2021/03/18 01:38:30;;;;;;;26.42;15.45;;;0.10;99.90;;;;;;5014228;28;20029;-74
2021/03/18 01:40:56;;;;;;;32.22;15.25;;;0.10;99.90;;;;;;5015547;28;20522;-75
2021/03/18 01:43:23;;;;;;;31.65;16.05;;;0.10;99.90;;;;;;5014213;28;20375;-75
2021/03/18 01:45:49;;;;;;;28.40;14.93;;;0.10;99.90;;;;;;5014410;28;20030;-75
2021/03/18 01:48:15;;;;;;;33.78;17.98;;;0.10;99.90;;;;;;5014026;28;20400;-76
2021/03/18 01:50:41;;;;;;;38.45;20.65;;;0.00;99.90;;;;;;5014011;28;20040;-75
2021/03/18 01:53:07;;;;;;;36.30;17.30;;;0.00;99.90;;;;;;5014043;28;20029;-76
2021/03/18 01:55:46;;;;;;;36.55;18.08;;;0.00;99.90;;;;;;5013950;28;20021;-75
2021/03/18 01:58:12;;;;;;;27.95;15.32;;;0.00;99.90;;;;;;5014858;28;20128;-75
2021/03/18 02:00:41;;;;;;;34.35;17.65;;;0.00;99.90;;;;;;5015126;28;20422;-74
2021/03/18 02:03:07;;;;;;;33.05;17.88;;;0.00;99.90;;;;;;5014892;28;20034;-74
2021/03/18 02:05:33;;;;;;;33.95;17.52;;;0.00;99.90;;;;;;5013756;28;20495;-75
2021/03/18 02:08:00;;;;;;;37.90;17.30;;;0.00;99.90;;;;;;5014961;28;20026;-75
2021/03/18 02:10:36;;;;;;;28.83;17.10;;;-0.10;99.90;;;;;;5013518;28;20404;-75
2021/03/18 02:13:04;;;;;;;35.75;18.30;;;-0.10;99.90;;;;;;5013613;28;20060;-75
2021/03/18 02:15:52;;;;;;;34.17;18.88;;;-0.10;99.90;;;;;;5014523;28;20037;-75
2021/03/18 02:18:27;;;;;;;27.58;16.48;;;-0.10;99.90;;;;;;4993967;28;20049;-75
2021/03/18 02:21:24;;;;;;;33.38;17.60;;;-0.10;99.90;;;;;;4995254;28;20556;-75
2021/03/18 02:24:16;;;;;;;32.15;17.38;;;-0.10;99.90;;;;;;4995009;28;20389;-76
2021/03/18 02:27:10;;;;;;;35.83;18.75;;;0.00;99.90;;;;;;4995201;28;20384;-75
2021/03/18 02:30:00;;;;;;;34.15;16.45;;;0.00;99.90;;;;;;4994873;28;20041;-74
2021/03/18 02:32:51;;;;;;;31.17;17.17;;;-0.10;99.90;;;;;;4995052;28;20033;-75
2021/03/18 02:35:50;;;;;;;33.10;18.52;;;-0.10;99.90;;;;;;4994810;28;20073;-74
2021/03/18 02:38:20;;;;;;;26.73;15.65;;;-0.10;99.90;;;;;;4986720;28;20436;-74
2021/03/18 02:40:50;;;;;;;26.02;14.80;;;-0.10;99.90;;;;;;4994604;28;20057;-76
2021/03/18 02:43:18;;;;;;;32.90;17.13;;;-0.10;99.90;;;;;;4994685;28;20472;-75
2021/03/18 02:45:50;;;;;;;31.95;16.80;;;-0.10;99.90;;;;;;5000015;28;20118;-75
2021/03/18 02:48:26;;;;;;;31.52;17.08;;;-0.10;99.90;;;;;;5014247;28;20495;-75
2021/03/18 02:50:53;;;;;;;28.65;17.13;;;0.00;99.90;;;;;;5014150;28;20116;-76
2021/03/18 02:53:22;;;;;;;31.30;16.02;;;0.00;99.90;;;;;;5014173;28;20022;-75
2021/03/18 02:55:51;;;;;;;22.23;15.10;;;-0.10;99.90;;;;;;5012768;28;20030;-75
2021/03/18 02:58:20;;;;;;;26.20;14.63;;;-0.10;99.90;;;;;;5014137;28;20024;-75
2021/03/18 03:00:47;;;;;;;30.10;15.38;;;-0.10;99.90;;;;;;5014015;28;20391;-77
2021/03/18 03:03:15;;;;;;;38.38;16.48;;;-0.10;99.90;;;;;;5012551;28;20495;-75
2021/03/18 03:05:42;;;;;;;22.70;12.90;;;-0.20;99.90;;;;;;5014018;28;20028;-74
2021/03/18 03:08:09;;;;;;;23.00;12.77;;;-0.20;99.90;;;;;;5012440;28;20026;-75
2021/03/18 03:10:35;;;;;;;24.83;12.50;;;-0.20;99.90;;;;;;5011839;28;20038;-75
2021/03/18 03:13:01;;;;;;;26.38;14.13;;;-0.20;99.90;;;;;;5012181;28;20022;-74
2021/03/18 03:15:31;;;;;;;21.13;11.98;;;-0.20;99.90;;;;;;5012494;28;20036;-75
2021/03/18 03:17:59;;;;;;;20.38;12.25;;;-0.20;99.90;;;;;;5014020;28;20026;-74
2021/03/18 03:20:26;;;;;;;24.55;14.15;;;-0.30;99.90;;;;;;5013699;28;20613;-75
2021/03/18 03:22:54;;;;;;;22.90;12.32;;;-0.30;99.90;;;;;;5013666;28;20010;-76
2021/03/18 03:25:21;;;;;;;21.88;13.23;;;-0.30;99.90;;;;;;5013593;28;20022;-75
2021/03/18 03:27:48;;;;;;;22.13;13.60;;;-0.30;99.90;;;;;;5013665;28;20107;-76
2021/03/18 03:30:15;;;;;;;22.95;12.65;;;-0.40;99.90;;;;;;5013348;28;20368;-75
2021/03/18 03:32:43;;;;;;;22.63;11.18;;;-0.50;99.90;;;;;;5013657;28;20386;-76
2021/03/18 03:35:09;;;;;;;19.10;10.52;;;-0.50;99.90;;;;;;5012117;28;20391;-75
2021/03/18 03:37:35;;;;;;;18.77;10.57;;;-0.50;99.90;;;;;;5012230;28;20026;-76
2021/03/18 03:40:03;;;;;;;25.10;13.70;;;-0.50;99.90;;;;;;5013325;28;20423;-75
2021/03/18 03:42:29;;;;;;;22.02;13.65;;;-0.60;99.90;;;;;;5013025;28;20108;-75
2021/03/18 03:44:55;;;;;;;23.05;12.48;;;-0.60;99.90;;;;;;5011888;28;20116;-75
2021/03/18 03:47:21;;;;;;;24.35;11.75;;;-0.60;99.90;;;;;;5013335;28;20022;-75
2021/03/18 03:49:47;;;;;;;24.98;12.55;;;-0.60;99.90;;;;;;5013241;28;20068;-75
2021/03/18 03:52:16;;;;;;;25.80;12.18;;;-0.60;99.90;;;;;;5011926;28;20069;-75
2021/03/18 03:54:46;;;;;;;22.15;11.80;;;-0.60;99.90;;;;;;5013305;28;20424;-74
2021/03/18 03:57:21;;;;;;;20.52;12.13;;;-0.60;99.90;;;;;;5012123;28;20353;-75
2021/03/18 03:59:47;;;;;;;20.02;11.25;;;-0.70;99.90;;;;;;5013306;28;20049;-75
2021/03/18 04:02:15;;;;;;;20.95;11.27;;;-0.70;99.90;;;;;;5013034;28;20072;-74
2021/03/18 04:04:46;;;;;;;21.98;11.57;;;-0.70;99.90;;;;;;5011942;28;20049;-75
2021/03/18 04:07:22;;;;;;;19.17;9.93;;;-0.70;99.90;;;;;;5011873;28;20026;-75
2021/03/18 04:09:49;;;;;;;18.77;9.73;;;-0.80;99.90;;;;;;5011774;28;20500;-75
2021/03/18 04:12:18;;;;;;;15.45;9.73;;;-0.70;99.90;;;;;;5011440;28;20041;-77
2021/03/18 04:14:55;;;;;;;16.67;9.93;;;-0.80;99.90;;;;;;5013079;28;20025;-77
2021/03/18 04:17:21;;;;;;;16.17;9.73;;;-0.80;99.90;;;;;;5011714;28;20037;-76
2021/03/18 04:19:50;;;;;;;15.13;8.82;;;-0.80;99.90;;;;;;5012949;28;20076;-77
2021/03/18 04:22:17;;;;;;;17.05;9.10;;;-0.80;99.90;;;;;;5013385;28;20506;-76
2021/03/18 04:24:46;;;;;;;19.27;8.63;;;-0.80;99.90;;;;;;5016959;28;20022;-76
2021/03/18 04:27:12;;;;;;;14.98;8.57;;;-0.80;99.90;;;;;;5016844;28;20415;-76
2021/03/18 04:29:39;;;;;;;15.23;9.27;;;-0.80;99.90;;;;;;5016749;28;20041;-76
2021/03/18 04:32:06;;;;;;;14.30;8.23;;;-0.90;99.90;;;;;;5015534;28;20028;-75
2021/03/18 04:34:32;;;;;;;13.65;8.52;;;-0.80;99.90;;;;;;5016309;28;20049;-76
2021/03/18 04:36:58;;;;;;;11.90;7.55;;;-0.90;99.90;;;;;;5016734;28;20084;-75
2021/03/18 04:39:25;;;;;;;15.25;8.55;;;-0.80;99.90;;;;;;5016413;28;20033;-75
2021/03/18 04:41:52;;;;;;;15.13;8.23;;;-0.90;99.90;;;;;;5016673;28;20072;-75
2021/03/18 04:44:17;;;;;;;13.63;8.00;;;-0.90;99.90;;;;;;5015244;28;20030;-76
2021/03/18 04:46:47;;;;;;;14.30;7.93;;;-0.90;99.90;;;;;;5016087;28;20018;-77
2021/03/18 04:49:15;;;;;;;15.15;6.88;;;-0.90;99.90;;;;;;5015036;28;20034;-76
2021/03/18 04:51:46;;;;;;;15.82;7.35;;;-1.00;99.90;;;;;;5016209;28;20083;-75
2021/03/18 04:54:12;;;;;;;15.57;8.93;;;-1.00;99.90;;;;;;5013096;28;20026;-74
2021/03/18 04:56:43;;;;;;;14.80;8.05;;;-1.00;99.90;;;;;;5016136;28;20365;-75
2021/03/18 04:59:15;;;;;;;12.75;7.50;;;-1.10;99.90;;;;;;5002044;28;20045;-75
2021/03/18 05:02:00;;;;;;;16.33;9.47;;;-1.10;99.90;;;;;;5010212;28;20097;-75
2021/03/18 05:04:27;;;;;;;22.70;10.95;;;-1.10;99.90;;;;;;5015108;28;20045;-76
2021/03/18 05:06:54;;;;;;;15.20;8.90;;;-1.10;99.90;;;;;;5016156;28;20021;-75
2021/03/18 05:09:24;;;;;;;15.88;8.57;;;-1.10;99.90;;;;;;5014671;28;20044;-74
2021/03/18 05:11:55;;;;;;;17.40;8.95;;;-1.10;99.90;;;;;;5015706;28;20057;-75
2021/03/18 05:14:22;;;;;;;18.10;8.98;;;-1.20;99.90;;;;;;5014146;28;20093;-75
2021/03/18 05:16:52;;;;;;;18.60;8.68;;;-1.20;99.90;;;;;;5009953;28;20476;-74
2021/03/18 05:19:18;;;;;;;15.05;7.57;;;-1.20;99.90;;;;;;5004557;28;20101;-75
2021/03/18 05:21:46;;;;;;;11.60;7.75;;;-1.20;99.90;;;;;;5010156;28;20030;-76
2021/03/18 05:24:14;;;;;;;15.35;7.70;;;-1.20;99.90;;;;;;5003989;28;20022;-76
2021/03/18 05:26:40;;;;;;;15.82;7.25;;;-1.20;99.90;;;;;;5008898;28;20021;-76
2021/03/18 05:29:06;;;;;;;9.05;5.32;;;-1.20;99.90;;;;;;5015156;28;20030;-76
2021/03/18 05:31:33;;;;;;;10.45;6.38;;;-1.30;99.90;;;;;;5015317;28;20018;-76
2021/03/18 05:33:59;;;;;;;9.63;6.10;;;-1.20;99.90;;;;;;5005725;28;20071;-75
2021/03/18 05:36:25;;;;;;;16.88;8.48;;;-1.20;99.90;;;;;;5014192;28;20054;-75
2021/03/18 05:38:51;;;;;;;8.15;5.70;;;-1.20;99.90;;;;;;5014172;28;20057;-75
2021/03/18 05:41:21;;;;;;;12.52;6.15;;;-1.30;99.90;;;;;;5011978;28;20109;-75
2021/03/18 05:43:48;;;;;;;11.00;5.43;;;-1.30;99.90;;;;;;5012689;28;20022;-74
2021/03/18 05:46:15;;;;;;;5.88;4.05;;;-1.30;99.90;;;;;;5011328;28;20052;-74
2021/03/18 05:48:42;;;;;;;8.98;5.45;;;-1.30;99.90;;;;;;5011986;28;20407;-74
2021/03/18 05:51:13;;;;;;;8.13;5.88;;;-1.40;99.90;;;;;;5014054;28;20480;-74
2021/03/18 05:53:39;;;;;;;15.73;6.75;;;-1.30;99.90;;;;;;5012906;28;20032;-75
2021/03/18 05:56:05;;;;;;;9.15;6.70;;;-1.30;99.90;;;;;;5014240;28;20018;-75
2021/03/18 05:58:33;;;;;;;12.93;6.88;;;-1.30;99.90;;;;;;5014164;28;20018;-74
2021/03/18 06:00:59;;;;;;;16.95;9.18;;;-1.50;99.90;;;;;;5013792;28;20083;-74
2021/03/18 06:03:25;;;;;;;15.93;10.35;;;-1.70;99.90;;;;;;5011250;28;20081;-74
2021/03/18 06:05:51;;;;;;;16.88;9.23;;;-1.80;99.90;;;;;;5010184;28;20026;-74
2021/03/18 06:08:16;;;;;;;16.10;10.55;;;-1.80;99.90;;;;;;4995997;28;20033;-76
2021/03/18 06:10:42;;;;;;;19.58;11.20;;;-1.80;99.90;;;;;;4995328;28;20038;-76
2021/03/18 06:13:08;;;;;;;21.05;11.20;;;-1.70;99.90;;;;;;4995299;28;20027;-77
2021/03/18 06:15:34;;;;;;;24.92;13.05;;;-1.60;99.90;;;;;;5002184;28;20096;-76
2021/03/18 06:18:00;;;;;;;16.70;10.68;;;-1.60;99.90;;;;;;5014970;28;20072;-76
2021/03/18 06:20:31;;;;;;;19.92;11.00;;;-1.50;99.90;;;;;;5013490;28;20033;-76
2021/03/18 06:22:59;;;;;;;20.75;11.15;;;-1.50;99.90;;;;;;5013505;28;20014;-77
2021/03/18 06:25:25;;;;;;;18.45;10.95;;;-1.50;99.90;;;;;;5013382;28;20402;-76
2021/03/18 06:28:31;;;;;;;27.73;12.35;;;-1.50;99.90;;;;;;5014615;28;20018;-78
2021/03/18 06:31:10;;;;;;;22.55;12.65;;;-1.30;99.90;;;;;;5012650;28;20045;-76
2021/03/18 06:33:49;;;;;;;18.45;11.48;;;-1.10;99.90;;;;;;5013332;28;20045;-76
2021/03/18 06:36:25;;;;;;;14.88;8.73;;;-1.00;99.90;;;;;;5012939;28;20018;-76
2021/03/18 06:39:01;;;;;;;19.45;11.52;;;-1.00;98.90;;;;;;5014338;28;20105;-76
2021/03/18 06:41:48;;;;;;;30.05;20.92;;;-0.90;96.30;;;;;;5003643;28;20076;-77
2021/03/18 06:44:30;;;;;;;24.33;14.88;;;-0.80;95.00;;;;;;5004007;28;20381;-75
2021/03/18 06:47:07;;;;;;;21.95;11.88;;;-0.80;92.80;;;;;;5003306;28;20046;-76
2021/03/18 06:49:33;;;;;;;21.02;13.90;;;-0.70;94.70;;;;;;5012162;28;20042;-76
2021/03/18 06:52:02;;;;;;;14.75;8.23;;;-0.50;92.10;;;;;;5008896;28;20029;-77
2021/03/18 06:54:31;;;;;;;12.65;8.05;;;-0.40;90.50;;;;;;5008890;28;20105;-76
2021/03/18 06:56:59;;;;;;;15.00;9.13;;;-0.30;88.80;;;;;;5007049;28;20030;-76
2021/03/18 06:59:31;;;;;;;8.23;5.95;;;-0.20;87.80;;;;;;5012222;28;20532;-77
2021/03/18 07:02:15;;;;;;;13.65;8.00;;;-0.10;85.20;;;;;;5013194;28;20030;-77
2021/03/18 07:04:48;;;;;;;12.52;7.50;;;0.00;86.50;;;;;;5012644;28;20042;-76
2021/03/18 07:07:15;;;;;;;;;;;0.20;85.80;;;;;;5010693;28;20018;-76
2021/03/18 07:09:43;;;;;;;9.82;6.68;;;0.40;84.20;;;;;;5011212;28;19917;-76
2021/03/18 07:12:11;;;;;;;12.18;6.25;;;0.50;82.30;;;;;;5010016;28;20475;-77
2021/03/18 07:14:58;;;;;;;9.07;4.78;;;0.70;81.80;;;;;;5010928;28;20049;-76
2021/03/18 07:17:28;;;;;;;9.30;6.72;;;0.70;75.80;;;;;;5012622;28;20018;-77
2021/03/18 07:20:20;;;;;;;8.60;5.32;;;0.70;77.60;;;;;;5007886;28;20022;-77
2021/03/18 07:22:48;;;;;;;6.60;4.57;;;0.60;76.50;;;;;;5011377;28;20018;-77
2021/03/18 07:25:16;;;;;;;4.57;3.38;;;0.70;75.50;;;;;;5011601;28;20464;-77
2021/03/18 07:27:51;;;;;;;7.75;4.43;;;0.70;73.10;;;;;;5011179;28;20026;-77
2021/03/18 07:30:32;;;;;;;6.10;3.17;;;0.70;72.60;;;;;;5012662;28;20080;-77
2021/03/18 07:32:59;;;;;;;5.25;3.85;;;0.80;71.80;;;;;;5012785;28;20030;-77
2021/03/18 07:35:26;;;;;;;7.65;3.88;;;1.00;72.70;;;;;;5011473;28;20431;-76
2021/03/18 07:37:52;;;;;;;6.03;4.43;;;1.20;71.50;;;;;;5012702;28;20072;-77
2021/03/18 07:40:19;;;;;;;7.45;4.75;;;1.20;69.90;;;;;;5012648;28;20033;-76
2021/03/18 07:42:47;;;;;;;8.63;5.10;;;1.40;68.70;;;;;;5011172;28;20028;-77
2021/03/18 07:45:18;;;;;;;6.70;4.13;;;1.40;68.40;;;;;;5012607;28;20084;-77
2021/03/18 07:47:45;;;;;;;9.63;5.28;;;1.50;68.10;;;;;;5012825;28;20072;-77
2021/03/18 07:50:13;;;;;;;11.20;8.48;;;1.20;65.60;;;;;;5012803;28;20376;-77
2021/03/18 07:52:42;;;;;;;7.20;4.20;;;1.10;68.40;;;;;;5012043;28;20469;-77
2021/03/18 07:55:11;;;;;;;5.75;5.20;;;1.30;67.90;;;;;;5009882;28;20022;-78
2021/03/18 07:57:55;;;;;;;7.50;3.78;;;1.50;67.00;;;;;;5012979;28;20072;-77
2021/03/18 08:00:23;;;;;;;7.85;4.25;;;1.50;65.40;;;;;;5013106;28;20468;-77
2021/03/18 08:02:50;;;;;;;8.45;4.00;;;1.40;65.40;;;;;;5011659;28;20037;-76
2021/03/18 08:05:42;;;;;;;4.95;2.20;;;1.40;65.10;;;;;;5011887;28;20037;-77
2021/03/18 08:08:08;;;;;;;4.85;3.50;;;1.40;62.30;;;;;;5011151;28;20052;-77
2021/03/18 08:10:40;;;;;;;4.05;3.30;;;1.60;64.20;;;;;;5012649;28;20125;-77
2021/03/18 08:13:05;;;;;;;6.35;3.70;;;1.60;62.50;;;;;;5013014;28;20435;-77
2021/03/18 08:15:40;;;;;;;4.95;4.00;;;1.80;63.20;;;;;;5012345;28;20026;-78
2021/03/18 08:18:15;;;;;;;7.07;4.22;;;2.00;64.00;;;;;;5013015;28;20392;-77
2021/03/18 08:20:40;;;;;;;7.05;4.63;;;2.00;63.10;;;;;;5011760;28;20391;-77
2021/03/18 08:23:27;;;;;;;5.78;3.42;;;2.00;64.10;;;;;;5012945;28;20033;-77
2021/03/18 08:25:54;;;;;;;5.63;3.58;;;2.00;62.90;;;;;;5012862;28;20022;-77
2021/03/18 08:28:41;;;;;;;6.00;3.72;;;2.10;64.30;;;;;;5012865;28;20022;-77
2021/03/18 08:31:13;;;;;;;8.02;4.43;;;2.10;64.10;;;;;;5009859;28;20518;-76
2021/03/18 08:33:53;;;;;;;6.45;4.43;;;2.30;64.70;;;;;;5011041;28;20073;-77
2021/03/18 08:36:24;;;;;;;8.32;4.85;;;2.50;65.30;;;;;;5011228;28;20060;-77
2021/03/18 08:38:52;;;;;;;11.48;5.03;;;2.40;64.50;;;;;;5011555;28;20026;-77
2021/03/18 08:41:30;;;;;;;8.00;5.00;;;2.50;65.00;;;;;;5007199;28;20025;-76
2021/03/18 08:44:23;;;;;;;11.98;6.05;;;2.60;64.80;;;;;;5007057;28;20056;-74
2021/03/18 08:46:55;;;;;;;30.83;13.50;;;2.50;65.70;;;;;;5011041;28;20042;-74
2021/03/18 08:49:29;;;;;;;9.30;6.43;;;2.20;66.80;;;;;;5011381;28;20049;-75
2021/03/18 08:51:58;;;;;;;8.60;3.67;;;2.00;68.10;;;;;;5011436;28;20396;-75
2021/03/18 08:54:39;;;;;;;13.43;6.32;;;1.90;67.20;;;;;;5011332;28;20022;-74
2021/03/18 08:57:11;;;;;;;8.40;4.65;;;1.90;69.30;;;;;;5012627;28;20026;-74
2021/03/18 08:59:38;;;;;;;6.93;4.15;;;2.00;69.20;;;;;;5012715;28;20029;-75
2021/03/18 09:02:09;;;;;;;5.70;4.00;;;1.90;67.90;;;;;;5012565;28;20029;-76
2021/03/18 09:04:40;;;;;;;18.85;9.27;;;1.70;66.90;;;;;;5012836;28;20033;-75
2021/03/18 09:07:20;;;;;;;9.73;7.60;;;1.80;69.30;;;;;;5009820;28;20026;-75
2021/03/18 09:09:46;;;;;;;10.93;5.22;;;1.70;70.10;;;;;;5014783;28;20040;-75
2021/03/18 09:12:12;;;;;;;8.30;3.70;;;2.00;69.50;;;;;;5014734;28;20558;-74
2021/03/18 09:14:39;;;;;;;6.28;4.93;;;2.20;67.30;;;;;;5014814;28;20032;-76
2021/03/18 09:17:10;;;;;;;6.38;3.42;;;2.20;64.50;;;;;;5014684;28;20434;-77
2021/03/18 09:19:46;;;;;;;7.35;4.13;;;2.40;65.20;;;;;;5014706;28;20419;-76
2021/03/18 09:22:16;;;;;;;4.72;3.50;;;2.60;64.70;;;;;;5015822;28;20053;-76
2021/03/18 09:24:47;;;;;;;4.95;3.15;;;2.70;65.10;;;;;;5014280;28;20030;-76
2021/03/18 09:27:14;;;;;;;3.53;3.20;;;2.40;62.90;;;;;;5014474;28;20032;-76
2021/03/18 09:29:42;;;;;;;5.75;3.28;;;2.30;62.50;;;;;;5015685;28;20034;-76
2021/03/18 09:32:11;;;;;;;7.72;5.28;;;2.20;62.40;;;;;;5013587;28;20030;-76
2021/03/18 09:34:44;;;;;;;7.47;3.20;;;2.30;64.10;;;;;;5014414;28;20356;-75
2021/03/18 09:37:11;;;;;;;5.90;3.47;;;2.40;63.10;;;;;;5015285;28;20081;-75
2021/03/18 09:39:37;;;;;;;7.00;4.60;;;2.40;63.30;;;;;;5013950;28;20117;-76
2021/03/18 09:42:06;;;;;;;4.32;3.60;;;2.70;64.10;;;;;;5014855;28;20484;-76
2021/03/18 09:44:33;;;;;;;9.35;4.10;;;2.60;62.40;;;;;;5009514;28;20021;-75
2021/03/18 09:47:04;;;;;;;10.45;6.85;;;2.60;62.40;;;;;;5014166;28;20026;-76
2021/03/18 09:49:30;;;;;;;8.48;4.70;;;2.40;62.80;;;;;;5014976;28;20080;-76
2021/03/18 09:52:00;;;;;;;5.22;2.70;;;2.30;64.10;;;;;;5011449;28;20026;-76
2021/03/18 09:54:26;;;;;;;6.15;3.20;;;1.90;62.10;;;;;;5009842;28;20475;-76
2021/03/18 09:56:52;;;;;;;6.72;3.67;;;1.80;61.90;;;;;;5015258;28;20030;-76
2021/03/18 09:59:23;;;;;;;4.45;3.35;;;1.70;63.60;;;;;;5013897;28;20108;-75
2021/03/18 10:01:49;;;;;;;6.07;3.97;;;1.60;63.80;;;;;;5014827;28;20037;-75
2021/03/18 10:04:17;;;;;;;10.73;5.50;;;1.60;64.10;;;;;;5015299;28;20040;-76
2021/03/18 10:06:47;;;;;;;4.80;4.05;;;2.00;64.70;;;;;;5013161;28;20554;-75
2021/03/18 10:09:31;;;;;;;9.43;4.45;;;2.40;64.20;;;;;;5014440;28;20384;-74
2021/03/18 10:12:00;;;;;;;9.02;4.63;;;2.60;64.50;;;;;;5012376;28;20021;-75
2021/03/18 10:14:29;;;;;;;6.75;3.80;;;2.30;61.60;;;;;;5013253;28;20049;-75
2021/03/18 10:16:56;;;;;;;7.03;4.00;;;2.20;62.20;;;;;;4995699;28;20034;-76
2021/03/18 10:19:31;;;;;;;5.97;4.65;;;1.90;63.80;;;;;;4993796;28;20033;-75
2021/03/18 10:22:00;;;;;;;7.95;4.68;;;1.80;64.80;;;;;;4993942;28;20027;-75
2021/03/18 10:24:26;;;;;;;10.73;6.57;;;1.80;65.80;;;;;;5013573;28;20020;-75
2021/03/18 10:26:51;;;;;;;8.65;4.90;;;2.00;66.50;;;;;;5014577;28;20100;-76
2021/03/18 10:29:18;;;;;;;3.78;3.45;;;1.90;63.90;;;;;;5012971;28;20029;-75
2021/03/18 10:31:44;;;;;;;8.05;4.07;;;2.00;62.10;;;;;;5014596;28;20072;-75
2021/03/18 10:34:26;;;;;;;5.47;4.63;;;2.30;61.40;;;;;;5003906;28;20432;-74
2021/03/18 10:36:52;;;;;;;6.10;3.50;;;2.40;61.40;;;;;;4998352;28;20020;-75
2021/03/18 10:39:21;;;;;;;4.07;3.58;;;2.30;60.80;;;;;;5013146;28;20026;-75
2021/03/18 10:41:59;;;;;;;7.38;4.55;;;2.40;60.90;;;;;;5013170;28;20415;-75
2021/03/18 10:44:35;;;;;;;4.70;3.17;;;2.50;60.60;;;;;;5014387;28;20461;-75
2021/03/18 10:47:14;;;;;;;9.15;5.35;;;2.40;59.30;;;;;;5014016;28;20033;-75
2021/03/18 10:49:40;;;;;;;6.30;4.25;;;2.40;60.30;;;;;;5012494;28;20041;-75
2021/03/18 10:52:08;;;;;;;9.65;5.40;;;2.40;59.70;;;;;;5007008;28;20057;-75
2021/03/18 10:54:35;;;;;;;7.55;3.80;;;2.40;61.10;;;;;;5009242;28;20025;-75
2021/03/18 10:57:02;;;;;;;5.25;4.15;;;2.20;58.60;;;;;;5012466;28;20042;-75
2021/03/18 10:59:28;;;;;;;40.75;12.25;;;2.10;59.60;;;;;;5045602;28;20080;-75
2021/03/18 11:02:06;;;;;;;8.05;4.38;;;2.20;60.60;;;;;;5008880;28;20022;-75
2021/03/18 11:04:31;;;;;;;10.55;5.72;;;2.40;61.40;;;;;;5014387;28;20057;-75
2021/03/18 11:06:57;;;;;;;8.43;4.70;;;2.80;61.10;;;;;;5012724;28;20084;-75
2021/03/18 11:09:22;;;;;;;8.15;4.43;;;2.90;59.10;;;;;;5013563;28;20045;-75
2021/03/18 11:12:00;;;;;;;4.50;3.85;;;2.90;57.70;;;;;;5010934;28;20037;-75
2021/03/18 11:14:27;;;;;;;8.38;4.68;;;2.80;58.70;;;;;;5009628;28;20026;-76
2021/03/18 11:17:08;;;;;;;6.18;4.20;;;2.80;58.30;;;;;;5012248;28;20037;-75
2021/03/18 11:19:34;;;;;;;6.05;4.13;;;2.30;58.20;;;;;;5012499;28;20088;-75
2021/03/18 11:22:06;;;;;;;5.38;3.42;;;2.30;58.20;;;;;;5013395;28;20034;-76
2021/03/18 11:24:33;;;;;;;4.57;3.70;;;2.30;58.20;;;;;;5013664;28;20026;-75
2021/03/18 11:27:02;;;;;;;7.00;4.72;;;2.10;57.90;;;;;;5012329;28;20021;-74
2021/03/18 11:29:31;;;;;;;5.95;4.75;;;2.10;58.50;;;;;;5012213;28;20041;-75
2021/03/18 11:32:06;;;;;;;6.05;4.40;;;2.50;59.60;;;;;;5012909;28;20026;-75
2021/03/18 11:34:40;;;;;;;4.93;4.28;;;2.70;59.00;;;;;;5013377;28;20022;-75
2021/03/18 11:37:09;;;;;;;11.52;6.22;;;2.60;57.80;;;;;;5013484;28;20017;-75
2021/03/18 11:39:35;;;;;;;7.35;5.50;;;2.60;57.80;;;;;;5012222;28;20022;-75
2021/03/18 11:42:01;;;;;;;7.45;4.43;;;2.50;58.20;;;;;;5011781;28;20387;-75
2021/03/18 11:44:29;;;;;;;5.93;4.75;;;2.60;56.80;;;;;;5013060;28;20499;-75
2021/03/18 11:47:05;;;;;;;9.13;4.70;;;2.50;56.50;;;;;;5013043;28;20030;-75
2021/03/18 11:49:31;;;;;;;6.22;3.92;;;2.60;56.10;;;;;;5013277;28;20542;-75
2021/03/18 11:51:56;;;;;;;12.27;5.93;;;2.60;55.90;;;;;;5010376;28;20038;-75
2021/03/18 11:54:22;;;;;;;14.13;8.68;;;2.80;56.20;;;;;;5011866;28;20060;-75
2021/03/18 11:56:48;;;;;;;9.20;6.28;;;3.00;55.80;;;;;;5008129;28;20104;-75
2021/03/18 11:59:14;;;;;;;10.07;5.88;;;2.80;56.00;;;;;;5010419;28;20065;-75
2021/03/18 12:01:40;;;;;;;9.95;6.95;;;2.40;57.20;;;;;;5013213;28;20022;-75
2021/03/18 12:04:06;;;;;;;12.77;8.88;;;2.20;57.40;;;;;;5012696;28;20037;-76
2021/03/18 12:06:32;;;;;;;17.63;7.95;;;2.20;57.80;;;;;;5003402;28;20026;-75
2021/03/18 12:08:57;;;;;;;12.00;6.65;;;2.20;57.40;;;;;;5010267;28;20447;-75
2021/03/18 12:11:23;;;;;;;24.20;10.45;;;2.20;57.20;;;;;;5011519;28;20030;-75
2021/03/18 12:13:49;;;;;;;9.60;5.32;;;2.40;57.00;;;;;;5013116;28;20028;-75
2021/03/18 12:16:14;;;;;;;9.30;5.75;;;2.40;54.70;;;;;;5012945;28;20033;-75
2021/03/18 12:18:40;;;;;;;11.32;6.40;;;2.60;52.10;;;;;;5012707;28;20034;-75
2021/03/18 12:21:07;;;;;;;10.02;6.32;;;2.80;51.60;;;;;;5012650;28;20030;-76
2021/03/18 12:23:32;;;;;;;12.73;7.32;;;2.80;50.20;;;;;;5012719;28;20018;-74
2021/03/18 12:25:58;;;;;;;7.90;5.13;;;3.00;51.20;;;;;;5040922;28;20117;-75
2021/03/18 12:28:24;;;;;;;6.32;4.65;;;2.90;51.90;;;;;;5012145;28;20450;-76
2021/03/18 12:30:50;;;;;;;7.43;5.32;;;2.90;51.50;;;;;;5012402;28;20449;-75
2021/03/18 12:33:19;;;;;;;7.28;5.35;;;2.60;51.20;;;;;;5011224;28;20480;-75
2021/03/18 12:35:46;;;;;;;6.38;3.80;;;2.50;51.60;;;;;;5011478;28;20014;-75
2021/03/18 12:38:12;;;;;;;7.15;5.80;;;2.30;50.10;;;;;;5011525;28;20018;-75
2021/03/18 12:40:38;;;;;;;8.13;5.43;;;2.30;49.80;;;;;;5000294;28;20034;-75
2021/03/18 12:43:03;;;;;;;7.18;5.10;;;2.70;50.50;;;;;;5009771;28;20392;-75
2021/03/18 12:45:31;;;;;;;6.90;4.80;;;2.80;51.00;;;;;;5015088;28;20018;-75
2021/03/18 12:48:00;;;;;;;7.38;4.22;;;3.10;51.60;;;;;;5016180;28;20468;-75
2021/03/18 12:50:26;;;;;;;7.07;4.28;;;3.40;50.80;;;;;;5015948;28;20380;-76
2021/03/18 12:52:53;;;;;;;6.38;4.05;;;3.50;50.00;;;;;;5015232;28;20113;-76
2021/03/18 12:55:19;;;;;;;6.63;4.50;;;3.20;48.10;;;;;;5016433;28;20119;-75
2021/03/18 12:57:47;;;;;;;5.10;3.55;;;3.10;48.20;;;;;;5016439;28;20120;-76